Terminal Aerodrome Forecast
Issued by NWS Melbourne, FL

Home | Current Version | Previous Version | Text Only | Print | Product List | Glossary On
Versions: 1 2 3 4 5 6 7 8 9 10 11 12 13 14 15 16 17 18
000
FTUS42 KMLB 312343
TAFVRB
TAF
KVRB 312343Z 0100/0124 18008KT P6SM FEW040 BKN150 BKN250
     FM011500 19010KT P6SM VCSH SCT020 BKN120
     FM011800 22012G18KT P6SM VCTS SCT030CB BKN060 BKN150=

USA.gov is the U.S. government's official web portal to all federal, state and local government web resources and services.